sensor_id;sensor_type;location;lat;lon;timestamp;P1;durP1;ratioP1;P2;durP2;ratioP2
32186;SDS011;18686;53.084;8.872;2022-09-13T00:00:47;6.72;;;3.47;;
32186;SDS011;18686;53.084;8.872;2022-09-13T00:03:17;4.20;;;3.47;;
32186;SDS011;18686;53.084;8.872;2022-09-13T00:05:46;4.53;;;3.42;;
32186;SDS011;18686;53.084;8.872;2022-09-13T00:08:14;8.65;;;3.33;;
32186;SDS011;18686;53.084;8.872;2022-09-13T00:10:43;4.35;;;3.63;;
32186;SDS011;18686;53.084;8.872;2022-09-13T00:13:13;3.42;;;3.03;;
32186;SDS011;18686;53.084;8.872;2022-09-13T00:15:42;8.73;;;3.45;;
32186;SDS011;18686;53.084;8.872;2022-09-13T00:18:11;4.55;;;3.20;;
32186;SDS011;18686;53.084;8.872;2022-09-13T00:20:40;5.57;;;3.45;;
32186;SDS011;18686;53.084;8.872;2022-09-13T00:23:09;5.10;;;3.50;;
32186;SDS011;18686;53.084;8.872;2022-09-13T00:25:37;5.40;;;3.40;;
32186;SDS011;18686;53.084;8.872;2022-09-13T00:28:05;3.92;;;3.53;;
32186;SDS011;18686;53.084;8.872;2022-09-13T00:30:34;4.00;;;3.60;;
32186;SDS011;18686;53.084;8.872;2022-09-13T00:33:02;3.78;;;3.33;;
32186;SDS011;18686;53.084;8.872;2022-09-13T00:35:30;4.68;;;3.85;;
32186;SDS011;18686;53.084;8.872;2022-09-13T00:38:00;6.82;;;3.95;;
32186;SDS011;18686;53.084;8.872;2022-09-13T00:40:28;6.70;;;3.90;;
32186;SDS011;18686;53.084;8.872;2022-09-13T00:42:56;3.92;;;3.13;;
32186;SDS011;18686;53.084;8.872;2022-09-13T00:45:24;3.92;;;3.53;;
32186;SDS011;18686;53.084;8.872;2022-09-13T00:47:53;5.28;;;4.50;;
32186;SDS011;18686;53.084;8.872;2022-09-13T00:50:26;5.13;;;4.38;;
32186;SDS011;18686;53.084;8.872;2022-09-13T00:52:59;6.80;;;5.13;;
32186;SDS011;18686;53.084;8.872;2022-09-13T00:55:33;11.32;;;5.57;;
32186;SDS011;18686;53.084;8.872;2022-09-13T00:58:05;7.35;;;6.15;;
32186;SDS011;18686;53.084;8.872;2022-09-13T01:00:37;7.50;;;6.70;;
32186;SDS011;18686;53.084;8.872;2022-09-13T01:03:07;8.48;;;6.18;;
32186;SDS011;18686;53.084;8.872;2022-09-13T01:05:39;8.20;;;6.40;;
32186;SDS011;18686;53.084;8.872;2022-09-13T01:08:13;11.38;;;6.68;;
32186;SDS011;18686;53.084;8.872;2022-09-13T01:10:47;7.97;;;6.68;;
32186;SDS011;18686;53.084;8.872;2022-09-13T01:13:19;7.45;;;6.28;;
32186;SDS011;18686;53.084;8.872;2022-09-13T01:15:49;6.32;;;5.72;;
32186;SDS011;18686;53.084;8.872;2022-09-13T01:18:18;7.72;;;6.68;;
32186;SDS011;18686;53.084;8.872;2022-09-13T01:20:59;6.50;;;5.85;;
32186;SDS011;18686;53.084;8.872;2022-09-13T01:23:50;8.25;;;6.30;;
32186;SDS011;18686;53.084;8.872;2022-09-13T01:26:50;8.07;;;6.70;;
32186;SDS011;18686;53.084;8.872;2022-09-13T01:29:59;7.60;;;6.78;;
32186;SDS011;18686;53.084;8.872;2022-09-13T01:32:40;8.18;;;6.43;;
32186;SDS011;18686;53.084;8.872;2022-09-13T01:35:21;9.75;;;7.05;;
32186;SDS011;18686;53.084;8.872;2022-09-13T01:37:56;10.25;;;7.90;;
32186;SDS011;18686;53.084;8.872;2022-09-13T01:40:35;10.48;;;7.93;;
32186;SDS011;18686;53.084;8.872;2022-09-13T01:43:18;11.50;;;9.15;;
32186;SDS011;18686;53.084;8.872;2022-09-13T01:45:59;9.45;;;8.45;;
32186;SDS011;18686;53.084;8.872;2022-09-13T01:48:34;11.43;;;8.02;;
32186;SDS011;18686;53.084;8.872;2022-09-13T01:51:18;12.98;;;9.20;;
32186;SDS011;18686;53.084;8.872;2022-09-13T01:53:54;12.02;;;9.35;;
32186;SDS011;18686;53.084;8.872;2022-09-13T01:56:34;10.75;;;9.23;;
32186;SDS011;18686;53.084;8.872;2022-09-13T01:59:10;11.00;;;9.70;;
32186;SDS011;18686;53.084;8.872;2022-09-13T02:01:45;11.60;;;9.27;;
32186;SDS011;18686;53.084;8.872;2022-09-13T02:04:21;10.52;;;9.43;;
32186;SDS011;18686;53.084;8.872;2022-09-13T02:06:57;14.77;;;10.13;;
32186;SDS011;18686;53.084;8.872;2022-09-13T02:09:30;11.85;;;10.65;;
32186;SDS011;18686;53.084;8.872;2022-09-13T02:12:02;13.55;;;11.05;;
32186;SDS011;18686;53.084;8.872;2022-09-13T02:14:36;13.55;;;10.07;;
32186;SDS011;18686;53.084;8.872;2022-09-13T02:17:07;16.20;;;11.13;;
32186;SDS011;18686;53.084;8.872;2022-09-13T02:19:40;12.80;;;10.80;;
32186;SDS011;18686;53.084;8.872;2022-09-13T02:22:14;14.75;;;11.07;;
32186;SDS011;18686;53.084;8.872;2022-09-13T02:24:47;12.35;;;10.65;;
32186;SDS011;18686;53.084;8.872;2022-09-13T02:27:19;12.82;;;11.48;;
32186;SDS011;18686;53.084;8.872;2022-09-13T02:29:51;14.07;;;11.05;;
32186;SDS011;18686;53.084;8.872;2022-09-13T02:32:26;14.63;;;11.88;;
32186;SDS011;18686;53.084;8.872;2022-09-13T02:35:00;15.07;;;12.05;;
32186;SDS011;18686;53.084;8.872;2022-09-13T02:37:33;14.27;;;11.73;;
32186;SDS011;18686;53.084;8.872;2022-09-13T02:40:06;14.75;;;12.05;;
32186;SDS011;18686;53.084;8.872;2022-09-13T02:42:39;14.05;;;10.65;;
32186;SDS011;18686;53.084;8.872;2022-09-13T02:45:10;13.75;;;12.13;;
32186;SDS011;18686;53.084;8.872;2022-09-13T02:47:43;13.77;;;11.13;;
32186;SDS011;18686;53.084;8.872;2022-09-13T02:50:26;14.88;;;12.18;;
32186;SDS011;18686;53.084;8.872;2022-09-13T02:53:04;13.57;;;10.77;;
32186;SDS011;18686;53.084;8.872;2022-09-13T02:55:43;12.20;;;10.90;;
32186;SDS011;18686;53.084;8.872;2022-09-13T02:58:20;13.30;;;10.93;;
32186;SDS011;18686;53.084;8.872;2022-09-13T03:00:56;13.07;;;11.75;;
32186;SDS011;18686;53.084;8.872;2022-09-13T03:03:29;14.85;;;12.30;;
32186;SDS011;18686;53.084;8.872;2022-09-13T03:05:57;16.17;;;11.45;;
32186;SDS011;18686;53.084;8.872;2022-09-13T03:08:27;12.85;;;11.10;;
32186;SDS011;18686;53.084;8.872;2022-09-13T03:10:59;14.88;;;12.68;;
32186;SDS011;18686;53.084;8.872;2022-09-13T03:13:40;12.45;;;11.13;;
32186;SDS011;18686;53.084;8.872;2022-09-13T03:16:36;14.02;;;12.13;;
32186;SDS011;18686;53.084;8.872;2022-09-13T03:19:24;18.77;;;13.32;;
32186;SDS011;18686;53.084;8.872;2022-09-13T03:22:08;17.92;;;14.98;;
32186;SDS011;18686;53.084;8.872;2022-09-13T03:24:51;19.00;;;14.07;;
32186;SDS011;18686;53.084;8.872;2022-09-13T03:27:31;17.17;;;13.80;;
32186;SDS011;18686;53.084;8.872;2022-09-13T03:30:08;17.08;;;14.63;;
32186;SDS011;18686;53.084;8.872;2022-09-13T03:32:40;16.30;;;14.25;;
32186;SDS011;18686;53.084;8.872;2022-09-13T03:35:16;21.08;;;15.63;;
32186;SDS011;18686;53.084;8.872;2022-09-13T03:37:53;25.73;;;16.40;;
32186;SDS011;18686;53.084;8.872;2022-09-13T03:40:29;21.52;;;15.98;;
32186;SDS011;18686;53.084;8.872;2022-09-13T03:43:04;17.98;;;16.13;;
32186;SDS011;18686;53.084;8.872;2022-09-13T03:45:38;21.20;;;17.27;;
32186;SDS011;18686;53.084;8.872;2022-09-13T03:48:11;19.20;;;17.02;;
32186;SDS011;18686;53.084;8.872;2022-09-13T03:50:42;18.25;;;16.05;;
32186;SDS011;18686;53.084;8.872;2022-09-13T03:53:14;19.35;;;16.73;;
32186;SDS011;18686;53.084;8.872;2022-09-13T03:55:50;21.75;;;16.90;;
32186;SDS011;18686;53.084;8.872;2022-09-13T03:58:19;22.77;;;19.50;;
32186;SDS011;18686;53.084;8.872;2022-09-13T04:00:47;21.02;;;17.40;;
32186;SDS011;18686;53.084;8.872;2022-09-13T04:03:16;20.70;;;18.10;;
32186;SDS011;18686;53.084;8.872;2022-09-13T04:05:45;22.92;;;19.40;;
32186;SDS011;18686;53.084;8.872;2022-09-13T04:08:13;23.58;;;20.30;;
32186;SDS011;18686;53.084;8.872;2022-09-13T04:10:42;23.00;;;19.95;;
32186;SDS011;18686;53.084;8.872;2022-09-13T04:13:10;23.55;;;19.65;;
32186;SDS011;18686;53.084;8.872;2022-09-13T04:15:38;21.20;;;18.52;;
32186;SDS011;18686;53.084;8.872;2022-09-13T04:18:06;22.20;;;18.40;;
32186;SDS011;18686;53.084;8.872;2022-09-13T04:20:36;29.17;;;21.75;;
32186;SDS011;18686;53.084;8.872;2022-09-13T04:23:06;24.05;;;19.73;;
32186;SDS011;18686;53.084;8.872;2022-09-13T04:25:36;22.42;;;18.98;;
32186;SDS011;18686;53.084;8.872;2022-09-13T04:28:05;23.83;;;20.23;;
32186;SDS011;18686;53.084;8.872;2022-09-13T04:30:34;25.35;;;20.23;;
32186;SDS011;18686;53.084;8.872;2022-09-13T04:33:07;25.25;;;19.50;;
32186;SDS011;18686;53.084;8.872;2022-09-13T04:35:36;24.77;;;20.05;;
32186;SDS011;18686;53.084;8.872;2022-09-13T04:38:06;23.50;;;20.63;;
32186;SDS011;18686;53.084;8.872;2022-09-13T04:40:34;24.45;;;20.55;;
32186;SDS011;18686;53.084;8.872;2022-09-13T04:43:04;23.20;;;20.30;;
32186;SDS011;18686;53.084;8.872;2022-09-13T04:45:32;24.15;;;20.38;;
32186;SDS011;18686;53.084;8.872;2022-09-13T04:48:01;25.95;;;22.30;;
32186;SDS011;18686;53.084;8.872;2022-09-13T04:50:29;27.58;;;20.02;;
32186;SDS011;18686;53.084;8.872;2022-09-13T04:52:57;27.00;;;20.77;;
32186;SDS011;18686;53.084;8.872;2022-09-13T04:55:26;22.25;;;18.70;;
32186;SDS011;18686;53.084;8.872;2022-09-13T04:57:55;23.40;;;19.88;;
32186;SDS011;18686;53.084;8.872;2022-09-13T05:00:23;26.23;;;20.65;;
32186;SDS011;18686;53.084;8.872;2022-09-13T05:02:53;28.40;;;21.38;;
32186;SDS011;18686;53.084;8.872;2022-09-13T05:05:22;24.80;;;21.52;;
32186;SDS011;18686;53.084;8.872;2022-09-13T05:07:54;24.73;;;20.77;;
32186;SDS011;18686;53.084;8.872;2022-09-13T05:10:22;26.10;;;21.30;;
32186;SDS011;18686;53.084;8.872;2022-09-13T05:12:52;24.58;;;20.23;;
32186;SDS011;18686;53.084;8.872;2022-09-13T05:15:23;25.42;;;21.60;;
32186;SDS011;18686;53.084;8.872;2022-09-13T05:17:52;25.52;;;21.35;;
32186;SDS011;18686;53.084;8.872;2022-09-13T05:20:20;25.48;;;21.42;;
32186;SDS011;18686;53.084;8.872;2022-09-13T05:22:48;25.52;;;22.02;;
32186;SDS011;18686;53.084;8.872;2022-09-13T05:25:16;25.38;;;22.08;;
32186;SDS011;18686;53.084;8.872;2022-09-13T05:27:49;24.90;;;22.10;;
32186;SDS011;18686;53.084;8.872;2022-09-13T05:30:19;23.63;;;20.40;;
32186;SDS011;18686;53.084;8.872;2022-09-13T05:32:48;23.20;;;19.88;;
32186;SDS011;18686;53.084;8.872;2022-09-13T05:35:17;24.05;;;19.38;;
32186;SDS011;18686;53.084;8.872;2022-09-13T05:37:45;25.65;;;20.10;;
32186;SDS011;18686;53.084;8.872;2022-09-13T05:40:16;25.52;;;21.00;;
32186;SDS011;18686;53.084;8.872;2022-09-13T05:42:44;22.63;;;19.05;;
32186;SDS011;18686;53.084;8.872;2022-09-13T05:45:13;23.40;;;19.63;;
32186;SDS011;18686;53.084;8.872;2022-09-13T05:47:42;22.23;;;18.75;;
32186;SDS011;18686;53.084;8.872;2022-09-13T05:50:10;27.48;;;19.40;;
32186;SDS011;18686;53.084;8.872;2022-09-13T05:52:59;23.30;;;19.10;;
32186;SDS011;18686;53.084;8.872;2022-09-13T05:55:27;24.08;;;19.98;;
32186;SDS011;18686;53.084;8.872;2022-09-13T05:57:56;22.75;;;18.42;;
32186;SDS011;18686;53.084;8.872;2022-09-13T06:00:24;20.92;;;18.30;;
32186;SDS011;18686;53.084;8.872;2022-09-13T06:02:54;21.63;;;18.65;;
32186;SDS011;18686;53.084;8.872;2022-09-13T06:05:22;23.50;;;19.85;;
32186;SDS011;18686;53.084;8.872;2022-09-13T06:10:24;21.90;;;18.67;;
32186;SDS011;18686;53.084;8.872;2022-09-13T06:12:53;22.20;;;18.08;;
32186;SDS011;18686;53.084;8.872;2022-09-13T06:15:21;20.33;;;18.15;;
32186;SDS011;18686;53.084;8.872;2022-09-13T06:17:49;23.27;;;18.50;;
32186;SDS011;18686;53.084;8.872;2022-09-13T06:20:18;22.65;;;18.42;;
32186;SDS011;18686;53.084;8.872;2022-09-13T06:22:47;20.85;;;18.63;;
32186;SDS011;18686;53.084;8.872;2022-09-13T06:25:15;20.75;;;17.60;;
32186;SDS011;18686;53.084;8.872;2022-09-13T06:27:44;23.95;;;18.83;;
32186;SDS011;18686;53.084;8.872;2022-09-13T06:30:15;21.67;;;18.90;;
32186;SDS011;18686;53.084;8.872;2022-09-13T06:32:44;23.20;;;18.40;;
32186;SDS011;18686;53.084;8.872;2022-09-13T06:35:13;21.75;;;17.73;;
32186;SDS011;18686;53.084;8.872;2022-09-13T06:37:52;19.25;;;17.23;;
32186;SDS011;18686;53.084;8.872;2022-09-13T06:40:21;20.45;;;17.52;;
32186;SDS011;18686;53.084;8.872;2022-09-13T06:42:50;20.85;;;17.30;;
32186;SDS011;18686;53.084;8.872;2022-09-13T06:45:19;18.67;;;16.58;;
32186;SDS011;18686;53.084;8.872;2022-09-13T06:47:47;18.45;;;15.75;;
32186;SDS011;18686;53.084;8.872;2022-09-13T06:50:15;19.42;;;15.77;;
32186;SDS011;18686;53.084;8.872;2022-09-13T06:52:44;18.00;;;15.43;;
32186;SDS011;18686;53.084;8.872;2022-09-13T06:55:17;17.55;;;14.70;;
32186;SDS011;18686;53.084;8.872;2022-09-13T06:57:45;18.88;;;16.10;;
32186;SDS011;18686;53.084;8.872;2022-09-13T07:00:14;17.08;;;14.48;;
32186;SDS011;18686;53.084;8.872;2022-09-13T07:02:42;18.05;;;14.30;;
32186;SDS011;18686;53.084;8.872;2022-09-13T07:05:10;16.05;;;14.25;;
32186;SDS011;18686;53.084;8.872;2022-09-13T07:07:39;17.65;;;14.00;;
32186;SDS011;18686;53.084;8.872;2022-09-13T07:10:08;13.50;;;12.10;;
32186;SDS011;18686;53.084;8.872;2022-09-13T07:12:37;16.70;;;13.63;;
32186;SDS011;18686;53.084;8.872;2022-09-13T07:15:07;17.63;;;14.07;;
32186;SDS011;18686;53.084;8.872;2022-09-13T07:17:36;15.38;;;12.45;;
32186;SDS011;18686;53.084;8.872;2022-09-13T07:20:05;12.65;;;10.63;;
32186;SDS011;18686;53.084;8.872;2022-09-13T07:22:34;12.88;;;11.23;;
32186;SDS011;18686;53.084;8.872;2022-09-13T07:25:04;13.77;;;10.60;;
32186;SDS011;18686;53.084;8.872;2022-09-13T07:27:33;11.85;;;10.23;;
32186;SDS011;18686;53.084;8.872;2022-09-13T07:30:03;11.95;;;10.27;;
32186;SDS011;18686;53.084;8.872;2022-09-13T07:32:32;10.20;;;9.05;;
32186;SDS011;18686;53.084;8.872;2022-09-13T07:35:00;10.43;;;8.60;;
32186;SDS011;18686;53.084;8.872;2022-09-13T07:37:28;8.68;;;7.70;;
32186;SDS011;18686;53.084;8.872;2022-09-13T07:39:56;10.57;;;9.32;;
32186;SDS011;18686;53.084;8.872;2022-09-13T07:42:24;12.27;;;8.32;;
32186;SDS011;18686;53.084;8.872;2022-09-13T07:44:52;10.70;;;8.52;;
32186;SDS011;18686;53.084;8.872;2022-09-13T07:47:22;9.00;;;8.13;;
32186;SDS011;18686;53.084;8.872;2022-09-13T07:49:50;9.98;;;8.15;;
32186;SDS011;18686;53.084;8.872;2022-09-13T07:52:18;11.55;;;9.05;;
32186;SDS011;18686;53.084;8.872;2022-09-13T07:54:46;8.98;;;7.80;;
32186;SDS011;18686;53.084;8.872;2022-09-13T07:57:16;9.38;;;7.43;;
32186;SDS011;18686;53.084;8.872;2022-09-13T07:59:51;9.68;;;7.85;;
32186;SDS011;18686;53.084;8.872;2022-09-13T08:02:22;8.57;;;7.47;;
32186;SDS011;18686;53.084;8.872;2022-09-13T08:04:50;9.27;;;7.47;;
32186;SDS011;18686;53.084;8.872;2022-09-13T08:07:18;9.38;;;8.27;;
32186;SDS011;18686;53.084;8.872;2022-09-13T08:09:46;8.90;;;8.00;;
32186;SDS011;18686;53.084;8.872;2022-09-13T08:12:14;7.38;;;6.63;;
32186;SDS011;18686;53.084;8.872;2022-09-13T08:14:42;7.57;;;6.80;;
32186;SDS011;18686;53.084;8.872;2022-09-13T08:17:10;7.82;;;7.00;;
32186;SDS011;18686;53.084;8.872;2022-09-13T08:19:40;7.82;;;6.75;;
32186;SDS011;18686;53.084;8.872;2022-09-13T08:22:08;8.15;;;7.32;;
32186;SDS011;18686;53.084;8.872;2022-09-13T08:24:36;9.77;;;8.07;;
32186;SDS011;18686;53.084;8.872;2022-09-13T08:27:04;9.32;;;7.13;;
32186;SDS011;18686;53.084;8.872;2022-09-13T08:29:32;9.07;;;7.50;;
32186;SDS011;18686;53.084;8.872;2022-09-13T08:32:00;7.65;;;6.90;;
32186;SDS011;18686;53.084;8.872;2022-09-13T08:34:30;8.02;;;6.97;;
32186;SDS011;18686;53.084;8.872;2022-09-13T08:36:59;9.25;;;7.18;;
32186;SDS011;18686;53.084;8.872;2022-09-13T08:39:27;8.20;;;7.10;;
32186;SDS011;18686;53.084;8.872;2022-09-13T08:42:00;7.30;;;6.57;;
32186;SDS011;18686;53.084;8.872;2022-09-13T08:44:39;9.48;;;7.65;;
32186;SDS011;18686;53.084;8.872;2022-09-13T08:49:49;10.63;;;6.55;;
32186;SDS011;18686;53.084;8.872;2022-09-13T08:52:23;6.93;;;3.60;;
32186;SDS011;18686;53.084;8.872;2022-09-13T08:54:56;4.88;;;2.60;;
32186;SDS011;18686;53.084;8.872;2022-09-13T08:57:25;6.35;;;2.85;;
32186;SDS011;18686;53.084;8.872;2022-09-13T09:00:02;4.60;;;2.42;;
32186;SDS011;18686;53.084;8.872;2022-09-13T09:02:46;5.53;;;2.08;;
32186;SDS011;18686;53.084;8.872;2022-09-13T09:05:21;6.50;;;1.90;;
32186;SDS011;18686;53.084;8.872;2022-09-13T09:07:55;5.07;;;1.65;;
32186;SDS011;18686;53.084;8.872;2022-09-13T09:10:26;5.57;;;1.73;;
32186;SDS011;18686;53.084;8.872;2022-09-13T09:12:58;4.13;;;1.27;;
32186;SDS011;18686;53.084;8.872;2022-09-13T09:15:33;5.93;;;1.38;;
32186;SDS011;18686;53.084;8.872;2022-09-13T09:18:08;5.25;;;1.20;;
32186;SDS011;18686;53.084;8.872;2022-09-13T09:20:40;5.65;;;1.75;;
32186;SDS011;18686;53.084;8.872;2022-09-13T09:23:13;8.95;;;2.00;;
32186;SDS011;18686;53.084;8.872;2022-09-13T09:25:47;4.55;;;2.40;;
32186;SDS011;18686;53.084;8.872;2022-09-13T09:28:18;9.65;;;2.45;;
32186;SDS011;18686;53.084;8.872;2022-09-13T09:30:48;4.55;;;2.03;;
32186;SDS011;18686;53.084;8.872;2022-09-13T09:33:30;5.07;;;1.83;;
32186;SDS011;18686;53.084;8.872;2022-09-13T09:36:14;7.15;;;1.95;;
32186;SDS011;18686;53.084;8.872;2022-09-13T09:38:49;3.97;;;1.70;;
32186;SDS011;18686;53.084;8.872;2022-09-13T09:41:20;3.88;;;1.50;;
32186;SDS011;18686;53.084;8.872;2022-09-13T09:43:55;6.43;;;1.77;;
32186;SDS011;18686;53.084;8.872;2022-09-13T09:46:29;5.22;;;1.58;;
32186;SDS011;18686;53.084;8.872;2022-09-13T09:51:54;5.85;;;1.63;;
32186;SDS011;18686;53.084;8.872;2022-09-13T09:54:26;2.72;;;1.10;;
32186;SDS011;18686;53.084;8.872;2022-09-13T09:56:57;6.50;;;1.30;;
32186;SDS011;18686;53.084;8.872;2022-09-13T09:59:27;4.43;;;1.25;;
32186;SDS011;18686;53.084;8.872;2022-09-13T10:01:58;4.57;;;1.17;;
32186;SDS011;18686;53.084;8.872;2022-09-13T10:04:27;1.33;;;0.85;;
32186;SDS011;18686;53.084;8.872;2022-09-13T10:07:10;5.85;;;0.98;;
32186;SDS011;18686;53.084;8.872;2022-09-13T10:12:27;4.50;;;1.40;;
32186;SDS011;18686;53.084;8.872;2022-09-13T10:15:04;4.78;;;1.45;;
32186;SDS011;18686;53.084;8.872;2022-09-13T10:17:38;2.75;;;1.27;;
32186;SDS011;18686;53.084;8.872;2022-09-13T10:20:18;4.68;;;1.60;;
32186;SDS011;18686;53.084;8.872;2022-09-13T10:23:08;5.80;;;1.10;;
32186;SDS011;18686;53.084;8.872;2022-09-13T10:25:39;6.65;;;1.20;;
32186;SDS011;18686;53.084;8.872;2022-09-13T10:28:14;5.30;;;1.50;;
32186;SDS011;18686;53.084;8.872;2022-09-13T10:30:51;5.35;;;1.30;;
32186;SDS011;18686;53.084;8.872;2022-09-13T10:33:27;3.28;;;1.33;;
32186;SDS011;18686;53.084;8.872;2022-09-13T10:35:58;4.68;;;1.40;;
32186;SDS011;18686;53.084;8.872;2022-09-13T10:38:29;3.10;;;1.45;;
32186;SDS011;18686;53.084;8.872;2022-09-13T10:41:01;3.30;;;0.90;;
32186;SDS011;18686;53.084;8.872;2022-09-13T10:46:01;4.30;;;1.00;;
32186;SDS011;18686;53.084;8.872;2022-09-13T10:48:43;2.78;;;1.00;;
32186;SDS011;18686;53.084;8.872;2022-09-13T10:51:28;4.20;;;1.05;;
32186;SDS011;18686;53.084;8.872;2022-09-13T10:54:16;2.38;;;1.05;;
32186;SDS011;18686;53.084;8.872;2022-09-13T10:56:47;1.80;;;1.30;;
32186;SDS011;18686;53.084;8.872;2022-09-13T10:59:18;2.97;;;1.38;;
32186;SDS011;18686;53.084;8.872;2022-09-13T11:01:54;2.53;;;1.10;;
32186;SDS011;18686;53.084;8.872;2022-09-13T11:04:39;1.58;;;0.88;;
32186;SDS011;18686;53.084;8.872;2022-09-13T11:07:37;1.10;;;1.00;;
32186;SDS011;18686;53.084;8.872;2022-09-13T11:10:18;2.90;;;1.42;;
32186;SDS011;18686;53.084;8.872;2022-09-13T11:12:58;2.35;;;1.05;;
32186;SDS011;18686;53.084;8.872;2022-09-13T11:15:36;3.78;;;1.00;;
32186;SDS011;18686;53.084;8.872;2022-09-13T11:18:15;2.72;;;1.20;;
32186;SDS011;18686;53.084;8.872;2022-09-13T11:20:56;2.13;;;0.80;;
32186;SDS011;18686;53.084;8.872;2022-09-13T11:23:39;3.88;;;0.93;;
32186;SDS011;18686;53.084;8.872;2022-09-13T11:26:28;3.25;;;0.90;;
32186;SDS011;18686;53.084;8.872;2022-09-13T11:29:11;3.28;;;1.15;;
32186;SDS011;18686;53.084;8.872;2022-09-13T11:31:52;3.83;;;1.02;;
32186;SDS011;18686;53.084;8.872;2022-09-13T11:34:29;2.33;;;0.93;;
32186;SDS011;18686;53.084;8.872;2022-09-13T11:37:15;3.45;;;0.80;;
32186;SDS011;18686;53.084;8.872;2022-09-13T11:39:59;1.42;;;0.80;;
32186;SDS011;18686;53.084;8.872;2022-09-13T11:42:40;3.47;;;0.77;;
32186;SDS011;18686;53.084;8.872;2022-09-13T11:45:26;5.75;;;2.67;;
32186;SDS011;18686;53.084;8.872;2022-09-13T11:48:15;2.33;;;0.80;;
32186;SDS011;18686;53.084;8.872;2022-09-13T11:51:09;2.85;;;0.98;;
32186;SDS011;18686;53.084;8.872;2022-09-13T11:53:50;4.30;;;0.90;;
32186;SDS011;18686;53.084;8.872;2022-09-13T11:56:29;4.55;;;0.90;;
32186;SDS011;18686;53.084;8.872;2022-09-13T11:59:07;1.88;;;0.77;;
32186;SDS011;18686;53.084;8.872;2022-09-13T12:01:44;3.55;;;0.90;;
32186;SDS011;18686;53.084;8.872;2022-09-13T12:04:17;2.03;;;0.70;;
32186;SDS011;18686;53.084;8.872;2022-09-13T12:06:52;2.95;;;0.80;;
32186;SDS011;18686;53.084;8.872;2022-09-13T12:09:24;2.42;;;0.70;;
32186;SDS011;18686;53.084;8.872;2022-09-13T12:11:57;3.15;;;0.80;;
32186;SDS011;18686;53.084;8.872;2022-09-13T12:14:31;2.05;;;0.85;;
32186;SDS011;18686;53.084;8.872;2022-09-13T12:17:14;3.00;;;0.90;;
32186;SDS011;18686;53.084;8.872;2022-09-13T12:19:51;3.05;;;0.93;;
32186;SDS011;18686;53.084;8.872;2022-09-13T12:22:22;1.90;;;0.77;;
32186;SDS011;18686;53.084;8.872;2022-09-13T12:24:57;3.20;;;0.93;;
32186;SDS011;18686;53.084;8.872;2022-09-13T12:30:06;3.70;;;0.77;;
32186;SDS011;18686;53.084;8.872;2022-09-13T12:32:43;4.18;;;1.13;;
32186;SDS011;18686;53.084;8.872;2022-09-13T12:35:16;3.53;;;0.90;;
32186;SDS011;18686;53.084;8.872;2022-09-13T12:37:57;4.00;;;1.00;;
32186;SDS011;18686;53.084;8.872;2022-09-13T12:43:35;2.97;;;0.80;;
32186;SDS011;18686;53.084;8.872;2022-09-13T12:49:33;3.88;;;1.10;;
32186;SDS011;18686;53.084;8.872;2022-09-13T12:52:30;5.28;;;1.15;;
32186;SDS011;18686;53.084;8.872;2022-09-13T12:55:26;6.05;;;1.25;;
32186;SDS011;18686;53.084;8.872;2022-09-13T13:01:26;3.30;;;1.30;;
32186;SDS011;18686;53.084;8.872;2022-09-13T13:03:58;3.03;;;1.20;;
32186;SDS011;18686;53.084;8.872;2022-09-13T13:06:32;2.28;;;0.80;;
32186;SDS011;18686;53.084;8.872;2022-09-13T13:09:06;3.38;;;1.15;;
32186;SDS011;18686;53.084;8.872;2022-09-13T13:11:54;2.15;;;0.85;;
32186;SDS011;18686;53.084;8.872;2022-09-13T13:14:26;3.60;;;0.70;;
32186;SDS011;18686;53.084;8.872;2022-09-13T13:23:22;5.05;;;2.53;;
32186;SDS011;18686;53.084;8.872;2022-09-13T13:31:36;8.27;;;3.53;;
32186;SDS011;18686;53.084;8.872;2022-09-13T13:34:29;4.47;;;1.60;;
32186;SDS011;18686;53.084;8.872;2022-09-13T13:37:02;5.32;;;2.08;;
32186;SDS011;18686;53.084;8.872;2022-09-13T13:39:35;4.25;;;1.15;;
32186;SDS011;18686;53.084;8.872;2022-09-13T13:42:12;5.80;;;0.80;;
32186;SDS011;18686;53.084;8.872;2022-09-13T13:53:50;4.28;;;1.00;;
32186;SDS011;18686;53.084;8.872;2022-09-13T13:58:57;4.88;;;0.98;;
32186;SDS011;18686;53.084;8.872;2022-09-13T14:01:33;4.82;;;1.05;;
32186;SDS011;18686;53.084;8.872;2022-09-13T14:04:15;3.22;;;0.93;;
32186;SDS011;18686;53.084;8.872;2022-09-13T14:07:09;2.38;;;0.80;;
32186;SDS011;18686;53.084;8.872;2022-09-13T14:10:03;4.35;;;1.15;;
32186;SDS011;18686;53.084;8.872;2022-09-13T14:12:42;3.10;;;0.90;;
32186;SDS011;18686;53.084;8.872;2022-09-13T14:15:24;4.05;;;0.85;;
32186;SDS011;18686;53.084;8.872;2022-09-13T14:18:12;4.88;;;1.13;;
32186;SDS011;18686;53.084;8.872;2022-09-13T14:21:00;5.47;;;2.50;;
32186;SDS011;18686;53.084;8.872;2022-09-13T14:23:30;3.53;;;0.90;;
32186;SDS011;18686;53.084;8.872;2022-09-13T14:25:59;3.00;;;0.95;;
32186;SDS011;18686;53.084;8.872;2022-09-13T14:28:30;5.55;;;1.13;;
32186;SDS011;18686;53.084;8.872;2022-09-13T14:30:59;4.00;;;0.80;;
32186;SDS011;18686;53.084;8.872;2022-09-13T14:33:28;4.68;;;1.20;;
32186;SDS011;18686;53.084;8.872;2022-09-13T14:36:02;7.63;;;1.30;;
32186;SDS011;18686;53.084;8.872;2022-09-13T14:38:32;2.72;;;0.90;;
32186;SDS011;18686;53.084;8.872;2022-09-13T14:41:08;2.55;;;0.93;;
32186;SDS011;18686;53.084;8.872;2022-09-13T14:43:41;3.25;;;0.90;;
32186;SDS011;18686;53.084;8.872;2022-09-13T14:46:11;4.25;;;0.90;;
32186;SDS011;18686;53.084;8.872;2022-09-13T14:48:48;4.95;;;1.10;;
32186;SDS011;18686;53.084;8.872;2022-09-13T14:51:22;3.97;;;0.90;;
32186;SDS011;18686;53.084;8.872;2022-09-13T14:53:55;4.05;;;1.00;;
32186;SDS011;18686;53.084;8.872;2022-09-13T14:56:31;3.20;;;1.13;;
32186;SDS011;18686;53.084;8.872;2022-09-13T14:59:10;6.00;;;1.10;;
32186;SDS011;18686;53.084;8.872;2022-09-13T15:01:41;3.00;;;0.80;;
32186;SDS011;18686;53.084;8.872;2022-09-13T15:04:10;2.08;;;0.70;;
32186;SDS011;18686;53.084;8.872;2022-09-13T15:06:43;4.55;;;1.92;;
32186;SDS011;18686;53.084;8.872;2022-09-13T15:09:15;3.28;;;1.50;;
32186;SDS011;18686;53.084;8.872;2022-09-13T15:11:55;4.80;;;1.67;;
32186;SDS011;18686;53.084;8.872;2022-09-13T15:14:27;3.70;;;1.38;;
32186;SDS011;18686;53.084;8.872;2022-09-13T15:17:06;5.90;;;1.58;;
32186;SDS011;18686;53.084;8.872;2022-09-13T15:19:40;6.50;;;2.08;;
32186;SDS011;18686;53.084;8.872;2022-09-13T15:22:17;8.32;;;2.05;;
32186;SDS011;18686;53.084;8.872;2022-09-13T15:24:51;5.43;;;1.70;;
32186;SDS011;18686;53.084;8.872;2022-09-13T15:27:21;7.90;;;1.10;;
32186;SDS011;18686;53.084;8.872;2022-09-13T15:29:55;4.27;;;1.10;;
32186;SDS011;18686;53.084;8.872;2022-09-13T15:32:30;6.28;;;1.13;;
32186;SDS011;18686;53.084;8.872;2022-09-13T15:35:00;6.28;;;1.38;;
32186;SDS011;18686;53.084;8.872;2022-09-13T15:37:30;8.10;;;1.20;;
32186;SDS011;18686;53.084;8.872;2022-09-13T15:40:07;4.50;;;1.30;;
32186;SDS011;18686;53.084;8.872;2022-09-13T15:42:46;3.83;;;1.48;;
32186;SDS011;18686;53.084;8.872;2022-09-13T15:45:17;5.68;;;1.35;;
32186;SDS011;18686;53.084;8.872;2022-09-13T15:47:47;4.07;;;1.35;;
32186;SDS011;18686;53.084;8.872;2022-09-13T15:50:20;6.05;;;1.70;;
32186;SDS011;18686;53.084;8.872;2022-09-13T15:52:53;8.07;;;2.23;;
32186;SDS011;18686;53.084;8.872;2022-09-13T15:55:21;10.30;;;1.50;;
32186;SDS011;18686;53.084;8.872;2022-09-13T15:57:53;4.32;;;1.30;;
32186;SDS011;18686;53.084;8.872;2022-09-13T16:00:24;6.45;;;1.38;;
32186;SDS011;18686;53.084;8.872;2022-09-13T16:02:54;7.97;;;1.40;;
32186;SDS011;18686;53.084;8.872;2022-09-13T16:05:22;6.00;;;1.23;;